sensor_id;sensor_type;location;lat;lon;timestamp;temperature;humidity
17421;DHT22;8828;48.800;9.540;2023-07-24T00:02:09;20.90;99.90
17421;DHT22;8828;48.800;9.540;2023-07-24T00:04:37;20.90;99.90
17421;DHT22;8828;48.800;9.540;2023-07-24T00:07:04;20.90;99.90
17421;DHT22;8828;48.800;9.540;2023-07-24T00:09:34;21.00;99.90
17421;DHT22;8828;48.800;9.540;2023-07-24T00:12:01;20.90;99.90
17421;DHT22;8828;48.800;9.540;2023-07-24T00:14:30;21.00;99.90
17421;DHT22;8828;48.800;9.540;2023-07-24T00:16:57;21.00;99.90
17421;DHT22;8828;48.800;9.540;2023-07-24T00:19:25;21.00;99.90
17421;DHT22;8828;48.800;9.540;2023-07-24T00:21:53;21.00;99.90
17421;DHT22;8828;48.800;9.540;2023-07-24T00:24:21;20.90;99.90
17421;DHT22;8828;48.800;9.540;2023-07-24T00:26:50;20.90;99.90
17421;DHT22;8828;48.800;9.540;2023-07-24T00:29:18;20.90;99.90
17421;DHT22;8828;48.800;9.540;2023-07-24T00:31:46;21.00;99.90
17421;DHT22;8828;48.800;9.540;2023-07-24T00:34:13;21.00;99.90
17421;DHT22;8828;48.800;9.540;2023-07-24T00:36:41;21.00;99.90
17421;DHT22;8828;48.800;9.540;2023-07-24T00:39:09;21.10;99.90
17421;DHT22;8828;48.800;9.540;2023-07-24T00:41:37;21.10;99.90
17421;DHT22;8828;48.800;9.540;2023-07-24T00:44:06;21.10;99.90
17421;DHT22;8828;48.800;9.540;2023-07-24T00:46:34;21.00;99.90
17421;DHT22;8828;48.800;9.540;2023-07-24T00:49:02;21.00;99.90
17421;DHT22;8828;48.800;9.540;2023-07-24T00:51:31;21.10;99.90
17421;DHT22;8828;48.800;9.540;2023-07-24T00:54:01;21.00;99.90
17421;DHT22;8828;48.800;9.540;2023-07-24T00:56:29;21.00;99.90
17421;DHT22;8828;48.800;9.540;2023-07-24T00:58:58;21.00;99.90
17421;DHT22;8828;48.800;9.540;2023-07-24T01:01:28;21.00;99.90
17421;DHT22;8828;48.800;9.540;2023-07-24T01:03:56;21.00;99.90
17421;DHT22;8828;48.800;9.540;2023-07-24T01:06:24;20.90;99.90
17421;DHT22;8828;48.800;9.540;2023-07-24T01:08:52;20.90;99.90
17421;DHT22;8828;48.800;9.540;2023-07-24T01:11:20;20.90;99.90
17421;DHT22;8828;48.800;9.540;2023-07-24T01:16:36;20.80;99.90
17421;DHT22;8828;48.800;9.540;2023-07-24T01:19:05;20.80;99.90
17421;DHT22;8828;48.800;9.540;2023-07-24T01:21:52;20.80;99.90
17421;DHT22;8828;48.800;9.540;2023-07-24T01:24:29;20.80;99.90
17421;DHT22;8828;48.800;9.540;2023-07-24T01:26:59;20.80;99.90
17421;DHT22;8828;48.800;9.540;2023-07-24T01:29:27;20.80;99.90
17421;DHT22;8828;48.800;9.540;2023-07-24T01:34:59;20.70;99.90
17421;DHT22;8828;48.800;9.540;2023-07-24T01:37:27;20.60;99.90
17421;DHT22;8828;48.800;9.540;2023-07-24T01:39:55;20.60;99.90
17421;DHT22;8828;48.800;9.540;2023-07-24T01:42:25;20.60;99.90
17421;DHT22;8828;48.800;9.540;2023-07-24T01:44:54;20.60;99.90
17421;DHT22;8828;48.800;9.540;2023-07-24T01:47:22;20.50;99.90
17421;DHT22;8828;48.800;9.540;2023-07-24T01:49:50;20.50;99.90
17421;DHT22;8828;48.800;9.540;2023-07-24T01:52:17;20.50;99.90
17421;DHT22;8828;48.800;9.540;2023-07-24T01:54:45;20.50;99.90
17421;DHT22;8828;48.800;9.540;2023-07-24T01:57:13;20.50;99.90
17421;DHT22;8828;48.800;9.540;2023-07-24T01:59:42;20.40;99.90
17421;DHT22;8828;48.800;9.540;2023-07-24T02:02:11;20.50;99.90
17421;DHT22;8828;48.800;9.540;2023-07-24T02:04:39;20.50;99.90
17421;DHT22;8828;48.800;9.540;2023-07-24T02:07:07;20.40;99.90
17421;DHT22;8828;48.800;9.540;2023-07-24T02:09:34;20.50;99.90
17421;DHT22;8828;48.800;9.540;2023-07-24T02:12:02;20.50;99.90
17421;DHT22;8828;48.800;9.540;2023-07-24T02:14:30;20.40;99.90
17421;DHT22;8828;48.800;9.540;2023-07-24T02:16:59;20.50;99.90
17421;DHT22;8828;48.800;9.540;2023-07-24T02:22:31;20.40;99.90
17421;DHT22;8828;48.800;9.540;2023-07-24T02:24:59;20.40;99.90
17421;DHT22;8828;48.800;9.540;2023-07-24T02:27:27;20.40;99.90
17421;DHT22;8828;48.800;9.540;2023-07-24T02:29:57;20.40;99.90
17421;DHT22;8828;48.800;9.540;2023-07-24T02:32:26;20.40;99.90
17421;DHT22;8828;48.800;9.540;2023-07-24T02:34:54;20.30;99.90
17421;DHT22;8828;48.800;9.540;2023-07-24T02:37:22;20.30;99.90
17421;DHT22;8828;48.800;9.540;2023-07-24T02:39:51;20.30;99.90
17421;DHT22;8828;48.800;9.540;2023-07-24T02:42:19;20.30;99.90
17421;DHT22;8828;48.800;9.540;2023-07-24T02:44:46;20.30;99.90
17421;DHT22;8828;48.800;9.540;2023-07-24T02:47:14;20.30;99.90
17421;DHT22;8828;48.800;9.540;2023-07-24T02:49:43;20.20;99.90
17421;DHT22;8828;48.800;9.540;2023-07-24T02:52:11;20.20;99.90
17421;DHT22;8828;48.800;9.540;2023-07-24T02:54:39;20.20;99.90
17421;DHT22;8828;48.800;9.540;2023-07-24T02:57:07;20.10;99.90
17421;DHT22;8828;48.800;9.540;2023-07-24T02:59:35;20.10;99.90
17421;DHT22;8828;48.800;9.540;2023-07-24T03:02:03;20.10;99.90
17421;DHT22;8828;48.800;9.540;2023-07-24T03:04:31;20.00;99.90
17421;DHT22;8828;48.800;9.540;2023-07-24T03:07:00;20.00;99.90
17421;DHT22;8828;48.800;9.540;2023-07-24T03:09:28;20.00;99.90
17421;DHT22;8828;48.800;9.540;2023-07-24T03:11:55;20.00;99.90
17421;DHT22;8828;48.800;9.540;2023-07-24T03:14:23;19.90;99.90
17421;DHT22;8828;48.800;9.540;2023-07-24T03:16:51;20.00;99.90
17421;DHT22;8828;48.800;9.540;2023-07-24T03:19:19;19.90;99.90
17421;DHT22;8828;48.800;9.540;2023-07-24T03:21:46;19.90;99.90
17421;DHT22;8828;48.800;9.540;2023-07-24T03:24:16;19.90;99.90
17421;DHT22;8828;48.800;9.540;2023-07-24T03:26:43;19.80;99.90
17421;DHT22;8828;48.800;9.540;2023-07-24T03:29:11;19.80;99.90
17421;DHT22;8828;48.800;9.540;2023-07-24T03:31:39;19.80;99.90
17421;DHT22;8828;48.800;9.540;2023-07-24T03:34:07;19.90;99.90
17421;DHT22;8828;48.800;9.540;2023-07-24T03:36:35;19.90;99.90
17421;DHT22;8828;48.800;9.540;2023-07-24T03:39:03;19.80;99.90
17421;DHT22;8828;48.800;9.540;2023-07-24T03:41:32;19.80;99.90
17421;DHT22;8828;48.800;9.540;2023-07-24T03:44:00;19.80;99.90
17421;DHT22;8828;48.800;9.540;2023-07-24T03:46:28;19.70;99.90
17421;DHT22;8828;48.800;9.540;2023-07-24T03:48:56;19.70;99.90
17421;DHT22;8828;48.800;9.540;2023-07-24T03:51:24;19.70;99.90
17421;DHT22;8828;48.800;9.540;2023-07-24T03:53:52;19.70;99.90
17421;DHT22;8828;48.800;9.540;2023-07-24T03:56:20;19.70;99.90
17421;DHT22;8828;48.800;9.540;2023-07-24T03:58:49;19.70;99.90
17421;DHT22;8828;48.800;9.540;2023-07-24T04:01:17;19.70;99.90
17421;DHT22;8828;48.800;9.540;2023-07-24T04:03:45;19.70;99.90
17421;DHT22;8828;48.800;9.540;2023-07-24T04:06:13;19.60;99.90
17421;DHT22;8828;48.800;9.540;2023-07-24T04:08:40;19.60;99.90
17421;DHT22;8828;48.800;9.540;2023-07-24T04:11:08;19.60;99.90
17421;DHT22;8828;48.800;9.540;2023-07-24T04:16:42;19.70;99.90
17421;DHT22;8828;48.800;9.540;2023-07-24T04:19:09;19.70;99.90
17421;DHT22;8828;48.800;9.540;2023-07-24T04:21:37;19.70;99.90
17421;DHT22;8828;48.800;9.540;2023-07-24T04:24:05;19.60;99.90
17421;DHT22;8828;48.800;9.540;2023-07-24T04:26:33;19.70;99.90
17421;DHT22;8828;48.800;9.540;2023-07-24T04:29:03;19.70;99.90
17421;DHT22;8828;48.800;9.540;2023-07-24T04:31:31;19.70;99.90
17421;DHT22;8828;48.800;9.540;2023-07-24T04:34:00;19.80;99.90
17421;DHT22;8828;48.800;9.540;2023-07-24T04:36:28;19.80;99.90
17421;DHT22;8828;48.800;9.540;2023-07-24T04:38:56;19.80;99.90
17421;DHT22;8828;48.800;9.540;2023-07-24T04:41:24;19.80;99.90
17421;DHT22;8828;48.800;9.540;2023-07-24T04:43:52;19.90;99.90
17421;DHT22;8828;48.800;9.540;2023-07-24T04:46:20;19.90;99.90
17421;DHT22;8828;48.800;9.540;2023-07-24T04:48:47;19.90;99.90
17421;DHT22;8828;48.800;9.540;2023-07-24T04:54:21;19.90;99.90
17421;DHT22;8828;48.800;9.540;2023-07-24T04:56:48;19.80;99.90
17421;DHT22;8828;48.800;9.540;2023-07-24T04:59:16;19.90;99.90
17421;DHT22;8828;48.800;9.540;2023-07-24T05:01:44;19.80;99.90
17421;DHT22;8828;48.800;9.540;2023-07-24T05:04:12;19.90;99.90
17421;DHT22;8828;48.800;9.540;2023-07-24T05:06:40;19.90;99.90
17421;DHT22;8828;48.800;9.540;2023-07-24T05:09:07;19.90;99.90
17421;DHT22;8828;48.800;9.540;2023-07-24T05:11:36;19.90;99.90
17421;DHT22;8828;48.800;9.540;2023-07-24T05:14:04;19.90;99.90
17421;DHT22;8828;48.800;9.540;2023-07-24T05:16:32;19.90;99.90
17421;DHT22;8828;48.800;9.540;2023-07-24T05:19:00;19.90;99.90
17421;DHT22;8828;48.800;9.540;2023-07-24T05:21:28;19.90;99.90
17421;DHT22;8828;48.800;9.540;2023-07-24T05:23:56;20.00;99.90
17421;DHT22;8828;48.800;9.540;2023-07-24T05:26:23;20.00;99.90
17421;DHT22;8828;48.800;9.540;2023-07-24T05:28:53;20.00;99.90
17421;DHT22;8828;48.800;9.540;2023-07-24T05:31:20;20.10;99.90
17421;DHT22;8828;48.800;9.540;2023-07-24T05:33:48;20.10;99.90
17421;DHT22;8828;48.800;9.540;2023-07-24T05:36:16;20.20;99.90
17421;DHT22;8828;48.800;9.540;2023-07-24T05:38:44;20.20;99.90
17421;DHT22;8828;48.800;9.540;2023-07-24T05:41:11;20.20;99.90
17421;DHT22;8828;48.800;9.540;2023-07-24T05:43:39;20.30;99.90
17421;DHT22;8828;48.800;9.540;2023-07-24T05:46:08;20.30;99.90
17421;DHT22;8828;48.800;9.540;2023-07-24T05:48:36;20.40;99.90
17421;DHT22;8828;48.800;9.540;2023-07-24T05:51:04;20.40;99.90
17421;DHT22;8828;48.800;9.540;2023-07-24T05:53:32;20.40;99.90
17421;DHT22;8828;48.800;9.540;2023-07-24T05:56:00;20.40;99.90
17421;DHT22;8828;48.800;9.540;2023-07-24T05:58:28;20.40;99.90
17421;DHT22;8828;48.800;9.540;2023-07-24T06:00:56;20.40;99.90
17421;DHT22;8828;48.800;9.540;2023-07-24T06:03:25;20.50;99.90
17421;DHT22;8828;48.800;9.540;2023-07-24T06:05:53;20.50;99.90
17421;DHT22;8828;48.800;9.540;2023-07-24T06:08:21;20.50;99.90
17421;DHT22;8828;48.800;9.540;2023-07-24T06:10:50;20.50;99.90
17421;DHT22;8828;48.800;9.540;2023-07-24T06:13:18;20.50;99.90
17421;DHT22;8828;48.800;9.540;2023-07-24T06:15:46;20.50;99.90
17421;DHT22;8828;48.800;9.540;2023-07-24T06:18:14;20.50;99.90
17421;DHT22;8828;48.800;9.540;2023-07-24T06:20:43;20.60;99.90
17421;DHT22;8828;48.800;9.540;2023-07-24T06:23:11;20.50;99.90
17421;DHT22;8828;48.800;9.540;2023-07-24T06:25:39;20.50;99.90
17421;DHT22;8828;48.800;9.540;2023-07-24T06:28:07;20.60;99.90
17421;DHT22;8828;48.800;9.540;2023-07-24T06:30:34;20.50;99.90
17421;DHT22;8828;48.800;9.540;2023-07-24T06:33:02;20.50;99.90
17421;DHT22;8828;48.800;9.540;2023-07-24T06:35:30;20.50;99.90
17421;DHT22;8828;48.800;9.540;2023-07-24T06:37:59;20.50;99.90
17421;DHT22;8828;48.800;9.540;2023-07-24T06:40:27;20.50;99.90
17421;DHT22;8828;48.800;9.540;2023-07-24T06:42:55;20.60;99.90
17421;DHT22;8828;48.800;9.540;2023-07-24T06:45:23;20.60;99.90
17421;DHT22;8828;48.800;9.540;2023-07-24T06:47:50;20.60;99.90
17421;DHT22;8828;48.800;9.540;2023-07-24T06:50:18;20.60;99.90
17421;DHT22;8828;48.800;9.540;2023-07-24T06:52:46;20.50;99.90
17421;DHT22;8828;48.800;9.540;2023-07-24T06:55:15;20.60;99.90
17421;DHT22;8828;48.800;9.540;2023-07-24T06:57:43;20.60;99.90
17421;DHT22;8828;48.800;9.540;2023-07-24T07:00:11;20.60;99.90
17421;DHT22;8828;48.800;9.540;2023-07-24T07:02:39;20.60;99.90
17421;DHT22;8828;48.800;9.540;2023-07-24T07:05:07;20.60;99.90
17421;DHT22;8828;48.800;9.540;2023-07-24T07:07:35;20.70;99.90
17421;DHT22;8828;48.800;9.540;2023-07-24T07:10:03;20.70;99.90
17421;DHT22;8828;48.800;9.540;2023-07-24T07:12:33;20.70;99.90
17421;DHT22;8828;48.800;9.540;2023-07-24T07:15:01;20.70;99.90
17421;DHT22;8828;48.800;9.540;2023-07-24T07:17:29;20.70;99.90
17421;DHT22;8828;48.800;9.540;2023-07-24T07:19:56;20.70;99.90
17421;DHT22;8828;48.800;9.540;2023-07-24T07:22:24;20.70;99.90
17421;DHT22;8828;48.800;9.540;2023-07-24T07:24:52;20.70;99.90
17421;DHT22;8828;48.800;9.540;2023-07-24T07:27:20;20.70;99.90
17421;DHT22;8828;48.800;9.540;2023-07-24T07:29:49;20.80;99.90
17421;DHT22;8828;48.800;9.540;2023-07-24T07:32:17;20.80;99.90
17421;DHT22;8828;48.800;9.540;2023-07-24T07:34:45;20.80;99.90
17421;DHT22;8828;48.800;9.540;2023-07-24T07:37:12;20.90;99.90
17421;DHT22;8828;48.800;9.540;2023-07-24T07:39:40;20.90;99.90
17421;DHT22;8828;48.800;9.540;2023-07-24T07:42:08;21.00;99.90
17421;DHT22;8828;48.800;9.540;2023-07-24T07:44:39;21.00;99.90
17421;DHT22;8828;48.800;9.540;2023-07-24T07:47:08;21.10;99.90
17421;DHT22;8828;48.800;9.540;2023-07-24T07:49:36;21.20;99.90
17421;DHT22;8828;48.800;9.540;2023-07-24T07:52:04;21.30;99.90
17421;DHT22;8828;48.800;9.540;2023-07-24T07:54:32;21.30;99.90
17421;DHT22;8828;48.800;9.540;2023-07-24T07:56:59;21.40;99.90
17421;DHT22;8828;48.800;9.540;2023-07-24T07:59:27;21.50;99.90
17421;DHT22;8828;48.800;9.540;2023-07-24T08:01:55;21.60;99.90
17421;DHT22;8828;48.800;9.540;2023-07-24T08:04:24;21.70;99.90
17421;DHT22;8828;48.800;9.540;2023-07-24T08:06:52;21.70;99.90
17421;DHT22;8828;48.800;9.540;2023-07-24T08:09:20;21.80;99.90
17421;DHT22;8828;48.800;9.540;2023-07-24T08:11:50;21.80;99.90
17421;DHT22;8828;48.800;9.540;2023-07-24T08:14:18;21.80;99.90
17421;DHT22;8828;48.800;9.540;2023-07-24T08:16:47;21.70;99.90
17421;DHT22;8828;48.800;9.540;2023-07-24T08:19:16;21.70;99.90
17421;DHT22;8828;48.800;9.540;2023-07-24T08:21:45;21.70;99.90
17421;DHT22;8828;48.800;9.540;2023-07-24T08:24:14;21.70;99.90
17421;DHT22;8828;48.800;9.540;2023-07-24T08:26:41;21.60;99.90
17421;DHT22;8828;48.800;9.540;2023-07-24T08:29:09;21.60;99.90
17421;DHT22;8828;48.800;9.540;2023-07-24T08:31:37;21.60;99.90
17421;DHT22;8828;48.800;9.540;2023-07-24T08:34:05;21.60;99.90
17421;DHT22;8828;48.800;9.540;2023-07-24T08:36:33;21.60;99.90
17421;DHT22;8828;48.800;9.540;2023-07-24T08:39:02;21.60;99.90
17421;DHT22;8828;48.800;9.540;2023-07-24T08:41:30;21.60;99.90
17421;DHT22;8828;48.800;9.540;2023-07-24T08:44:00;21.60;99.90
17421;DHT22;8828;48.800;9.540;2023-07-24T08:46:28;21.60;99.90
17421;DHT22;8828;48.800;9.540;2023-07-24T08:48:57;21.60;99.90
17421;DHT22;8828;48.800;9.540;2023-07-24T08:51:25;21.60;99.90
17421;DHT22;8828;48.800;9.540;2023-07-24T08:53:53;21.60;99.90
17421;DHT22;8828;48.800;9.540;2023-07-24T08:56:23;21.60;99.90
17421;DHT22;8828;48.800;9.540;2023-07-24T08:58:50;21.60;99.90
17421;DHT22;8828;48.800;9.540;2023-07-24T09:01:18;21.60;99.90
17421;DHT22;8828;48.800;9.540;2023-07-24T09:03:46;21.60;99.90
17421;DHT22;8828;48.800;9.540;2023-07-24T09:06:17;21.60;99.90
17421;DHT22;8828;48.800;9.540;2023-07-24T09:08:45;21.60;99.90
17421;DHT22;8828;48.800;9.540;2023-07-24T09:11:13;21.60;99.90
17421;DHT22;8828;48.800;9.540;2023-07-24T09:13:43;21.60;99.90
17421;DHT22;8828;48.800;9.540;2023-07-24T09:16:20;21.60;99.90
17421;DHT22;8828;48.800;9.540;2023-07-24T09:18:48;21.60;99.90
17421;DHT22;8828;48.800;9.540;2023-07-24T09:21:36;21.70;99.90
17421;DHT22;8828;48.800;9.540;2023-07-24T09:24:10;21.70;99.90
17421;DHT22;8828;48.800;9.540;2023-07-24T09:26:48;21.80;99.90
17421;DHT22;8828;48.800;9.540;2023-07-24T09:29:17;21.80;99.90
17421;DHT22;8828;48.800;9.540;2023-07-24T09:31:46;21.80;99.90
17421;DHT22;8828;48.800;9.540;2023-07-24T09:34:14;21.80;99.90
17421;DHT22;8828;48.800;9.540;2023-07-24T09:36:42;21.90;99.90
17421;DHT22;8828;48.800;9.540;2023-07-24T09:39:10;21.90;99.90
17421;DHT22;8828;48.800;9.540;2023-07-24T09:41:38;22.00;99.90
17421;DHT22;8828;48.800;9.540;2023-07-24T09:44:07;22.10;99.90
17421;DHT22;8828;48.800;9.540;2023-07-24T09:46:36;22.10;99.90
17421;DHT22;8828;48.800;9.540;2023-07-24T09:49:13;22.20;99.90
17421;DHT22;8828;48.800;9.540;2023-07-24T09:51:41;22.20;99.90
17421;DHT22;8828;48.800;9.540;2023-07-24T09:54:14;22.20;99.90
17421;DHT22;8828;48.800;9.540;2023-07-24T09:56:43;22.20;99.90
17421;DHT22;8828;48.800;9.540;2023-07-24T09:59:23;22.10;99.90
17421;DHT22;8828;48.800;9.540;2023-07-24T10:01:52;22.10;99.90
17421;DHT22;8828;48.800;9.540;2023-07-24T10:04:20;22.00;99.90
17421;DHT22;8828;48.800;9.540;2023-07-24T10:06:51;22.00;99.90
17421;DHT22;8828;48.800;9.540;2023-07-24T10:09:19;22.00;99.90
17421;DHT22;8828;48.800;9.540;2023-07-24T10:11:49;22.00;99.90
17421;DHT22;8828;48.800;9.540;2023-07-24T10:14:17;21.90;99.90
17421;DHT22;8828;48.800;9.540;2023-07-24T10:16:45;21.90;99.90
17421;DHT22;8828;48.800;9.540;2023-07-24T10:19:15;21.90;99.90
17421;DHT22;8828;48.800;9.540;2023-07-24T10:21:46;21.90;99.90
17421;DHT22;8828;48.800;9.540;2023-07-24T10:24:14;21.80;99.90
17421;DHT22;8828;48.800;9.540;2023-07-24T10:27:02;21.80;99.90
17421;DHT22;8828;48.800;9.540;2023-07-24T10:29:34;21.80;99.90
17421;DHT22;8828;48.800;9.540;2023-07-24T10:32:01;21.70;99.90
17421;DHT22;8828;48.800;9.540;2023-07-24T10:34:37;21.70;99.90
17421;DHT22;8828;48.800;9.540;2023-07-24T10:37:07;21.60;99.90
17421;DHT22;8828;48.800;9.540;2023-07-24T10:39:38;21.60;99.90
17421;DHT22;8828;48.800;9.540;2023-07-24T10:42:07;21.60;99.90
17421;DHT22;8828;48.800;9.540;2023-07-24T10:44:35;21.60;99.90
17421;DHT22;8828;48.800;9.540;2023-07-24T10:47:04;21.50;99.90
17421;DHT22;8828;48.800;9.540;2023-07-24T10:49:31;21.50;99.90
17421;DHT22;8828;48.800;9.540;2023-07-24T10:52:01;21.50;99.90
17421;DHT22;8828;48.800;9.540;2023-07-24T10:54:28;21.40;99.90
17421;DHT22;8828;48.800;9.540;2023-07-24T10:56:59;21.40;99.90
17421;DHT22;8828;48.800;9.540;2023-07-24T10:59:35;21.40;99.90
17421;DHT22;8828;48.800;9.540;2023-07-24T11:02:03;21.40;99.90
17421;DHT22;8828;48.800;9.540;2023-07-24T11:04:32;21.30;99.90
17421;DHT22;8828;48.800;9.540;2023-07-24T11:07:01;21.30;99.90
17421;DHT22;8828;48.800;9.540;2023-07-24T11:09:35;21.20;99.90
17421;DHT22;8828;48.800;9.540;2023-07-24T11:12:11;21.20;99.90
17421;DHT22;8828;48.800;9.540;2023-07-24T11:14:45;21.10;99.90
17421;DHT22;8828;48.800;9.540;2023-07-24T11:17:13;21.00;99.90
17421;DHT22;8828;48.800;9.540;2023-07-24T11:19:41;21.00;99.90
17421;DHT22;8828;48.800;9.540;2023-07-24T11:22:10;20.90;99.90
17421;DHT22;8828;48.800;9.540;2023-07-24T11:24:45;21.00;99.90
17421;DHT22;8828;48.800;9.540;2023-07-24T11:27:13;20.90;99.90
17421;DHT22;8828;48.800;9.540;2023-07-24T11:29:47;20.90;99.90
17421;DHT22;8828;48.800;9.540;2023-07-24T11:32:17;20.90;99.90
17421;DHT22;8828;48.800;9.540;2023-07-24T11:34:45;20.90;99.90
17421;DHT22;8828;48.800;9.540;2023-07-24T11:37:15;21.00;99.90
17421;DHT22;8828;48.800;9.540;2023-07-24T11:39:42;21.00;99.90
17421;DHT22;8828;48.800;9.540;2023-07-24T11:42:10;20.90;99.90
17421;DHT22;8828;48.800;9.540;2023-07-24T11:44:38;20.90;99.90
17421;DHT22;8828;48.800;9.540;2023-07-24T11:47:07;20.90;99.90
17421;DHT22;8828;48.800;9.540;2023-07-24T11:49:35;20.90;99.90
17421;DHT22;8828;48.800;9.540;2023-07-24T11:52:04;20.80;99.90
17421;DHT22;8828;48.800;9.540;2023-07-24T11:54:34;20.80;99.90
17421;DHT22;8828;48.800;9.540;2023-07-24T11:57:02;20.90;99.90
17421;DHT22;8828;48.800;9.540;2023-07-24T11:59:36;21.00;99.90
17421;DHT22;8828;48.800;9.540;2023-07-24T12:02:04;21.10;99.90
17421;DHT22;8828;48.800;9.540;2023-07-24T12:04:32;21.40;99.90
17421;DHT22;8828;48.800;9.540;2023-07-24T12:07:00;21.70;99.90
17421;DHT22;8828;48.800;9.540;2023-07-24T12:09:29;22.10;99.90
17421;DHT22;8828;48.800;9.540;2023-07-24T12:11:59;22.50;99.90
17421;DHT22;8828;48.800;9.540;2023-07-24T12:14:27;22.80;99.90
17421;DHT22;8828;48.800;9.540;2023-07-24T12:17:00;23.00;99.90
17421;DHT22;8828;48.800;9.540;2023-07-24T12:19:28;23.20;99.90
17421;DHT22;8828;48.800;9.540;2023-07-24T12:21:55;23.30;99.90
17421;DHT22;8828;48.800;9.540;2023-07-24T12:24:23;23.50;99.90
17421;DHT22;8828;48.800;9.540;2023-07-24T12:26:51;23.70;99.90
17421;DHT22;8828;48.800;9.540;2023-07-24T12:29:20;23.90;99.90
17421;DHT22;8828;48.800;9.540;2023-07-24T12:31:48;24.10;99.90
17421;DHT22;8828;48.800;9.540;2023-07-24T12:34:15;24.30;99.90
17421;DHT22;8828;48.800;9.540;2023-07-24T12:36:43;24.40;99.90
17421;DHT22;8828;48.800;9.540;2023-07-24T12:39:14;24.50;99.90
17421;DHT22;8828;48.800;9.540;2023-07-24T12:41:41;24.70;99.90
17421;DHT22;8828;48.800;9.540;2023-07-24T12:44:09;24.90;99.90
17421;DHT22;8828;48.800;9.540;2023-07-24T12:46:38;25.10;99.90
17421;DHT22;8828;48.800;9.540;2023-07-24T12:49:06;25.30;99.90
17421;DHT22;8828;48.800;9.540;2023-07-24T12:51:34;25.40;99.90
17421;DHT22;8828;48.800;9.540;2023-07-24T12:54:02;25.50;99.90
17421;DHT22;8828;48.800;9.540;2023-07-24T12:56:43;25.50;99.90
17421;DHT22;8828;48.800;9.540;2023-07-24T12:59:11;25.50;99.90
17421;DHT22;8828;48.800;9.540;2023-07-24T13:01:40;25.50;99.90
17421;DHT22;8828;48.800;9.540;2023-07-24T13:04:08;25.60;99.90
17421;DHT22;8828;48.800;9.540;2023-07-24T13:06:36;25.60;99.90
17421;DHT22;8828;48.800;9.540;2023-07-24T13:09:04;25.70;99.90
17421;DHT22;8828;48.800;9.540;2023-07-24T13:11:32;25.70;99.90
17421;DHT22;8828;48.800;9.540;2023-07-24T13:14:00;25.70;99.90
17421;DHT22;8828;48.800;9.540;2023-07-24T13:16:28;25.70;99.90
17421;DHT22;8828;48.800;9.540;2023-07-24T13:18:57;25.70;99.90
17421;DHT22;8828;48.800;9.540;2023-07-24T13:21:25;25.70;99.90
17421;DHT22;8828;48.800;9.540;2023-07-24T13:23:53;25.60;99.90
17421;DHT22;8828;48.800;9.540;2023-07-24T13:26:22;25.80;99.90
17421;DHT22;8828;48.800;9.540;2023-07-24T13:28:50;25.80;99.90
17421;DHT22;8828;48.800;9.540;2023-07-24T13:31:20;25.80;99.90
17421;DHT22;8828;48.800;9.540;2023-07-24T13:33:48;25.80;99.90
17421;DHT22;8828;48.800;9.540;2023-07-24T13:36:17;25.70;99.90
17421;DHT22;8828;48.800;9.540;2023-07-24T13:38:45;25.80;99.90
17421;DHT22;8828;48.800;9.540;2023-07-24T13:41:13;25.90;99.90
17421;DHT22;8828;48.800;9.540;2023-07-24T13:43:40;26.00;99.90
17421;DHT22;8828;48.800;9.540;2023-07-24T13:46:08;26.00;99.90
17421;DHT22;8828;48.800;9.540;2023-07-24T13:48:36;26.00;99.90
17421;DHT22;8828;48.800;9.540;2023-07-24T13:51:04;26.00;99.90
17421;DHT22;8828;48.800;9.540;2023-07-24T13:53:33;26.00;99.90
17421;DHT22;8828;48.800;9.540;2023-07-24T13:56:01;26.00;99.90
17421;DHT22;8828;48.800;9.540;2023-07-24T13:58:29;25.90;99.90
17421;DHT22;8828;48.800;9.540;2023-07-24T14:00:56;26.00;99.90
17421;DHT22;8828;48.800;9.540;2023-07-24T14:03:24;26.00;99.90
17421;DHT22;8828;48.800;9.540;2023-07-24T14:05:56;26.00;99.90
17421;DHT22;8828;48.800;9.540;2023-07-24T14:08:24;26.00;99.90
17421;DHT22;8828;48.800;9.540;2023-07-24T14:10:53;26.10;99.90
17421;DHT22;8828;48.800;9.540;2023-07-24T14:13:21;26.10;99.90
17421;DHT22;8828;48.800;9.540;2023-07-24T14:15:49;26.10;99.90
17421;DHT22;8828;48.800;9.540;2023-07-24T14:18:17;26.10;99.90
17421;DHT22;8828;48.800;9.540;2023-07-24T14:20:45;26.10;99.90
17421;DHT22;8828;48.800;9.540;2023-07-24T14:23:13;26.10;99.90
17421;DHT22;8828;48.800;9.540;2023-07-24T14:25:41;26.20;99.90
17421;DHT22;8828;48.800;9.540;2023-07-24T14:28:10;26.10;99.90
17421;DHT22;8828;48.800;9.540;2023-07-24T14:30:38;26.10;99.90
17421;DHT22;8828;48.800;9.540;2023-07-24T14:33:06;26.20;99.90
17421;DHT22;8828;48.800;9.540;2023-07-24T14:35:34;26.20;99.90
17421;DHT22;8828;48.800;9.540;2023-07-24T14:38:02;26.10;99.90
17421;DHT22;8828;48.800;9.540;2023-07-24T14:40:29;26.10;99.90
17421;DHT22;8828;48.800;9.540;2023-07-24T14:42:57;26.10;99.90
17421;DHT22;8828;48.800;9.540;2023-07-24T14:45:26;26.10;99.90
17421;DHT22;8828;48.800;9.540;2023-07-24T14:47:54;26.10;99.90
17421;DHT22;8828;48.800;9.540;2023-07-24T14:50:22;26.20;99.90
17421;DHT22;8828;48.800;9.540;2023-07-24T14:52:50;26.30;99.90
17421;DHT22;8828;48.800;9.540;2023-07-24T14:55:17;26.40;99.90
17421;DHT22;8828;48.800;9.540;2023-07-24T14:57:45;26.40;99.90
17421;DHT22;8828;48.800;9.540;2023-07-24T15:00:14;26.50;99.90
17421;DHT22;8828;48.800;9.540;2023-07-24T15:02:44;26.60;99.90
17421;DHT22;8828;48.800;9.540;2023-07-24T15:05:12;26.60;99.90
17421;DHT22;8828;48.800;9.540;2023-07-24T15:07:39;26.50;99.90
17421;DHT22;8828;48.800;9.540;2023-07-24T15:10:07;26.60;99.90
17421;DHT22;8828;48.800;9.540;2023-07-24T15:12:35;26.70;99.90
17421;DHT22;8828;48.800;9.540;2023-07-24T15:15:03;26.60;99.90
17421;DHT22;8828;48.800;9.540;2023-07-24T15:17:31;26.60;99.90
17421;DHT22;8828;48.800;9.540;2023-07-24T15:20:00;26.60;99.90
17421;DHT22;8828;48.800;9.540;2023-07-24T15:22:29;26.60;99.90
17421;DHT22;8828;48.800;9.540;2023-07-24T15:24:56;26.50;99.90
17421;DHT22;8828;48.800;9.540;2023-07-24T15:27:24;26.40;99.90
17421;DHT22;8828;48.800;9.540;2023-07-24T15:29:52;26.20;99.90
17421;DHT22;8828;48.800;9.540;2023-07-24T15:32:20;26.20;99.90
17421;DHT22;8828;48.800;9.540;2023-07-24T15:34:48;25.80;99.90
17421;DHT22;8828;48.800;9.540;2023-07-24T15:37:17;25.30;99.90
17421;DHT22;8828;48.800;9.540;2023-07-24T15:39:45;25.00;99.90
17421;DHT22;8828;48.800;9.540;2023-07-24T15:42:12;24.70;99.90
17421;DHT22;8828;48.800;9.540;2023-07-24T15:44:40;24.50;99.90
17421;DHT22;8828;48.800;9.540;2023-07-24T15:47:08;24.20;99.90
17421;DHT22;8828;48.800;9.540;2023-07-24T15:49:36;24.00;99.90
17421;DHT22;8828;48.800;9.540;2023-07-24T15:52:05;23.80;99.90
17421;DHT22;8828;48.800;9.540;2023-07-24T15:54:34;23.60;99.90
17421;DHT22;8828;48.800;9.540;2023-07-24T15:57:02;23.50;99.90
17421;DHT22;8828;48.800;9.540;2023-07-24T15:59:30;23.40;99.90
17421;DHT22;8828;48.800;9.540;2023-07-24T16:01:58;23.30;99.90
17421;DHT22;8828;48.800;9.540;2023-07-24T16:04:26;23.20;99.90
17421;DHT22;8828;48.800;9.540;2023-07-24T16:06:54;23.10;99.90
17421;DHT22;8828;48.800;9.540;2023-07-24T16:09:22;23.00;99.90